Time;durP1;ratioP1;P1;durP2;ratioP2;P2;SDS_P1;SDS_P2;PMS_P1;PMS_P2;Temp;Humidity;BMP_temperature;BMP_pressure;BME280_temperature;BME280_humidity;BME280_pressure;Samples;Min_cycle;Max_cycle;Signal;HPM_P1;HPM_P2
2022/10/24 00:02:21;;;;;;;7.10;3.63;;;;;;;12.78;100.00;100041.03;4922062;29;20465;-76
2022/10/24 00:04:46;;;;;;;8.35;3.55;;;;;;;12.73;100.00;100046.16;4917120;29;20036;-76
2022/10/24 00:07:12;;;;;;;6.77;2.90;;;;;;;12.77;100.00;100060.81;4916634;29;20036;-77
2022/10/24 00:09:37;;;;;;;6.60;3.93;;;;;;;12.74;100.00;100054.00;4915820;29;20055;-76
2022/10/24 00:12:04;;;;;;;10.87;2.90;;;;;;;12.71;100.00;100059.72;4911997;29;20036;-77
2022/10/24 00:14:30;;;;;;;13.40;3.97;;;;;;;12.71;100.00;100059.72;4923066;29;20032;-76
2022/10/24 00:16:56;;;;;;;5.35;4.22;;;;;;;12.69;100.00;100069.81;4917379;29;20043;-77
2022/10/24 00:19:21;;;;;;;9.27;3.60;;;;;;;12.65;100.00;100063.19;4928695;29;20027;-76
2022/10/24 00:21:47;;;;;;;4.33;3.20;;;;;;;12.63;100.00;100067.91;4929708;29;20053;-77
2022/10/24 00:24:13;;;;;;;11.13;3.22;;;;;;;12.67;100.00;100075.38;4922975;29;20032;-76
2022/10/24 00:26:38;;;;;;;11.15;3.58;;;;;;;12.75;100.00;100087.78;4908844;29;20100;-76
2022/10/24 00:29:04;;;;;;;8.33;3.90;;;;;;;12.73;100.00;100094.34;4910627;29;20024;-76
2022/10/24 00:31:30;;;;;;;25.27;3.77;;;;;;;12.70;100.00;100073.31;4918447;29;20039;-77
2022/10/24 00:33:55;;;;;;;6.47;3.10;;;;;;;12.77;100.00;100069.66;4918946;29;20024;-76
2022/10/24 00:36:22;;;;;;;4.88;2.30;;;;;;;12.76;100.00;100062.69;4914707;29;20549;-76
2022/10/24 00:38:49;;;;;;;5.82;2.55;;;;;;;12.73;100.00;100052.31;4910478;29;20028;-75
2022/10/24 00:41:41;;;;;;;5.35;2.45;;;;;;;12.75;100.00;100061.00;4910590;29;20050;-76
2022/10/24 00:44:23;;;;;;;7.10;2.58;;;;;;;12.75;100.00;100061.00;4924637;29;20043;-76
2022/10/24 00:46:53;;;;;;;5.75;2.20;;;;;;;12.75;100.00;100054.81;4909791;29;20040;-76
2022/10/24 00:49:36;;;;;;;7.45;2.53;;;;;;;12.83;100.00;100057.34;4908767;29;20039;-77
2022/10/24 00:52:06;;;;;;;3.67;2.55;;;;;;;12.88;100.00;100060.28;4924691;29;20148;-76
2022/10/24 00:54:32;;;;;;;6.78;1.90;;;;;;;13.05;100.00;100061.66;4909564;29;20072;-76
2022/10/24 00:57:03;;;;;;;4.05;1.85;;;;;;;13.02;100.00;100064.72;4914546;29;20016;-76
2022/10/24 00:59:29;;;;;;;5.75;1.80;;;;;;;13.06;100.00;100057.97;4912144;29;20043;-76
2022/10/24 01:01:55;;;;;;;7.70;2.30;;;;;;;13.10;100.00;100053.84;4909673;29;20040;-75
2022/10/24 01:04:21;;;;;;;4.93;2.03;;;;;;;13.16;100.00;100043.34;4919446;29;20032;-76
2022/10/24 01:07:18;;;;;;;3.63;2.20;;;;;;;13.11;100.00;100035.94;4913513;29;20197;-75
2022/10/24 01:10:21;;;;;;;3.75;2.15;;;;;;;13.11;100.00;100060.06;4907966;29;20044;-76
2022/10/24 01:13:01;;;;;;;4.32;2.50;;;;;;;13.09;100.00;100067.47;4908307;29;20060;-76
2022/10/24 01:15:50;;;;;;;8.77;3.22;;;;;;;13.04;100.00;100070.72;4919824;29;20094;-76
2022/10/24 01:18:23;;;;;;;7.00;3.53;;;;;;;12.99;100.00;100072.31;4906317;29;20054;-76
2022/10/24 01:21:26;;;;;;;7.63;3.25;;;;;;;12.99;100.00;100089.22;4918300;29;20490;-76
2022/10/24 01:23:59;;;;;;;7.40;3.58;;;;;;;12.97;100.00;100080.56;4910814;29;20027;-76
2022/10/24 01:26:55;;;;;;;6.20;3.53;;;;;;;12.98;100.00;100078.72;4926606;29;20075;-76
2022/10/24 01:29:43;;;;;;;7.10;4.25;;;;;;;12.95;100.00;100079.94;4928410;29;20131;-76
2022/10/24 01:32:31;;;;;;;5.35;4.18;;;;;;;12.96;100.00;100081.56;4923486;29;20040;-76
2022/10/24 01:35:09;;;;;;;7.50;4.15;;;;;;;13.05;100.00;100083.09;4910735;29;20404;-76
2022/10/24 01:37:44;;;;;;;8.75;4.10;;;;;;;12.95;100.00;100079.94;4923718;29;20362;-75
2022/10/24 01:40:30;;;;;;;5.70;3.67;;;;;;;12.95;100.00;100081.78;4892329;29;20039;-76
2022/10/24 01:43:00;;;;;;;6.85;4.38;;;;;;;12.93;100.00;100067.75;4912808;29;20477;-76
2022/10/24 01:45:32;;;;;;;5.50;4.03;;;;;;;12.93;100.00;100070.44;4895760;29;20028;-76
2022/10/24 01:48:02;;;;;;;7.53;3.55;;;;;;;12.94;100.00;100067.53;4923688;29;20064;-76
2022/10/24 01:50:29;;;;;;;7.10;3.38;;;;;;;12.93;100.00;100059.72;4910575;29;20493;-76
2022/10/24 01:52:57;;;;;;;8.23;3.88;;;;;;;12.89;100.00;100054.72;4911941;29;20656;-76
2022/10/24 01:55:22;;;;;;;6.45;3.85;;;;;;;12.86;100.00;100062.34;4915324;29;20070;-75
2022/10/24 01:57:48;;;;;;;13.80;3.97;;;;;;;12.86;100.00;100051.63;4911060;29;20054;-76
2022/10/24 02:00:21;;;;;;;5.80;3.97;;;;;;;12.90;100.00;100055.56;4919392;29;20043;-76
2022/10/24 02:02:54;;;;;;;7.47;4.40;;;;;;;12.92;100.00;100058.03;4908856;29;20036;-76
2022/10/24 02:05:43;;;;;;;7.18;3.70;;;;;;;12.87;100.00;100053.25;4908946;29;20039;-76
2022/10/24 02:08:17;;;;;;;9.88;3.83;;;;;;;12.88;100.00;100050.41;4923434;29;20123;-75
2022/10/24 02:10:47;;;;;;;6.90;4.00;;;;;;;12.91;100.00;100046.50;4914202;29;20401;-76
2022/10/24 02:13:26;;;;;;;4.85;3.35;;;;;;;12.88;100.00;100052.25;4923537;29;20044;-76
2022/10/24 02:15:56;;;;;;;4.82;3.40;;;;;;;12.88;100.00;100044.22;4923053;29;20047;-76
2022/10/24 02:18:22;;;;;;;12.27;3.70;;;;;;;12.84;100.00;100037.59;4907425;29;20023;-75
2022/10/24 02:21:03;;;;;;;11.02;3.40;;;;;;;12.89;100.00;100040.50;4907480;29;20461;-76
2022/10/24 02:23:51;;;;;;;7.57;3.72;;;;;;;12.85;100.00;100039.22;4910790;29;20032;-76
2022/10/24 02:26:37;;;;;;;5.60;3.92;;;;;;;12.84;100.00;100033.06;4922909;29;20052;-76
2022/10/24 02:29:09;;;;;;;8.70;3.65;;;;;;;12.84;100.00;100029.56;4919847;29;20122;-76
2022/10/24 02:31:41;;;;;;;10.02;3.25;;;;;;;12.84;100.00;100032.22;4911517;29;20032;-76
2022/10/24 02:34:09;;;;;;;4.60;3.00;;;;;;;12.83;100.00;100030.56;4907556;29;20040;-76
2022/10/24 02:36:37;;;;;;;4.70;2.95;;;;;;;12.78;100.00;100023.13;4923034;29;20020;-76
2022/10/24 02:39:07;;;;;;;6.63;3.30;;;;;;;12.75;100.00;100017.31;4913403;29;20032;-75
2022/10/24 02:41:35;;;;;;;4.15;3.03;;;;;;;12.73;100.00;100024.72;4908829;29;20032;-76
2022/10/24 02:44:02;;;;;;;6.63;2.90;;;;;;;12.75;100.00;100022.69;4909888;29;20102;-75
2022/10/24 02:46:30;;;;;;;6.70;3.05;;;;;;;12.70;100.00;100019.75;4926274;29;20024;-75
2022/10/24 02:48:59;;;;;;;8.00;3.65;;;;;;;12.66;100.00;100017.44;4911602;29;20136;-76
2022/10/24 02:51:28;;;;;;;7.63;4.07;;;;;;;12.67;100.00;100019.13;4912658;29;20482;-76
2022/10/24 02:53:55;;;;;;;7.60;3.78;;;;;;;12.62;100.00;100016.19;4911632;29;20064;-76
2022/10/24 02:56:20;;;;;;;6.05;3.17;;;;;;;12.63;100.00;100017.84;4911245;29;20102;-76
2022/10/24 02:58:45;;;;;;;4.20;2.70;;;;;;;12.65;100.00;100015.81;4922920;29;20027;-75
2022/10/24 03:01:11;;;;;;;4.87;3.03;;;;;;;12.60;100.00;100006.72;4918956;29;20047;-76
2022/10/24 03:03:36;;;;;;;6.40;3.10;;;;;;;12.57;100.00;100010.59;4897236;29;20474;-76
2022/10/24 03:06:02;;;;;;;9.10;3.28;;;;;;;12.57;100.00;100013.28;4911894;29;20370;-76
2022/10/24 03:08:28;;;;;;;9.90;3.03;;;;;;;12.61;100.00;100008.34;4919405;29;20047;-75
2022/10/24 03:10:53;;;;;;;8.17;3.27;;;;;;;12.58;100.00;100000.72;4894606;29;20020;-76
2022/10/24 03:13:18;;;;;;;5.77;4.30;;;;;;;12.58;100.00;99998.84;4926330;29;20039;-76
2022/10/24 03:15:44;;;;;;;10.03;3.27;;;;;;;12.54;100.00;99986.88;4915584;29;20031;-76
2022/10/24 03:18:09;;;;;;;5.13;2.90;;;;;;;12.57;100.00;99996.38;4922925;29;20853;-76
2022/10/24 03:20:35;;;;;;;4.80;3.17;;;;;;;12.60;100.00;99996.81;4928304;29;20492;-75
2022/10/24 03:23:00;;;;;;;5.60;3.17;;;;;;;12.61;100.00;99987.75;4915031;29;20041;-76
2022/10/24 03:25:26;;;;;;;6.57;3.10;;;;;;;12.56;100.00;99986.69;4912852;29;20036;-76
2022/10/24 03:27:51;;;;;;;5.17;3.10;;;;;;;12.62;100.00;99978.72;4910982;29;20067;-76
2022/10/24 03:30:16;;;;;;;10.60;3.40;;;;;;;12.59;100.00;99971.06;4911341;29;20036;-76
2022/10/24 03:32:42;;;;;;;6.03;3.00;;;;;;;12.57;100.00;99967.75;4911190;29;20042;-76
2022/10/24 03:35:07;;;;;;;5.77;3.00;;;;;;;12.61;100.00;99969.00;4922177;29;20511;-76
2022/10/24 03:37:33;;;;;;;8.73;3.00;;;;;;;12.52;100.00;99964.81;4929833;29;20503;-75
2022/10/24 03:39:58;;;;;;;6.80;2.67;;;;;;;12.59;100.00;99962.19;4920469;29;20043;-76
2022/10/24 03:42:23;;;;;;;6.93;3.97;;;;;;;12.52;100.00;99955.97;4915445;29;20080;-76
2022/10/24 03:44:49;;;;;;;13.07;3.20;;;;;;;12.49;100.00;99959.03;4910570;29;20036;-76
2022/10/24 03:47:14;;;;;;;8.43;2.93;;;;;;;12.45;100.00;99958.59;4910886;29;20032;-76
2022/10/24 03:49:39;;;;;;;5.63;2.83;;;;;;;12.45;100.00;99956.75;4914701;29;20064;-76
2022/10/24 03:52:05;;;;;;;8.03;2.80;;;;;;;12.54;100.00;99959.28;4926406;29;20123;-75
2022/10/24 03:54:30;;;;;;;10.57;3.50;;;;;;;12.44;100.00;99948.91;4912631;29;20059;-75
2022/10/24 03:56:55;;;;;;;4.20;2.53;;;;;;;12.52;100.00;99954.09;4910268;29;20470;-76
2022/10/24 03:59:21;;;;;;;5.87;3.03;;;;;;;12.51;100.00;99963.19;4910235;29;20032;-76
2022/10/24 04:01:47;;;;;;;6.82;3.30;;;;;;;12.47;100.00;99961.91;4911858;29;20040;-76
2022/10/24 04:04:12;;;;;;;5.97;3.00;;;;;;;12.42;100.00;99954.44;4910630;29;20083;-76
2022/10/24 04:06:38;;;;;;;8.87;3.10;;;;;;;12.41;100.00;99942.09;4908621;29;20549;-75
2022/10/24 04:09:04;;;;;;;;;;;;;;;12.44;100.00;99948.91;4922017;29;20035;-76
2022/10/24 04:11:29;;;;;;;;;;;;;;;12.42;100.00;99942.91;4929107;29;20336;-76
2022/10/24 04:13:55;;;;;;;6.37;3.27;;;;;;;12.39;100.00;99944.13;4916749;29;20297;-75
2022/10/24 04:16:22;;;;;;;;;;;;;;;12.41;100.00;99939.41;4921867;29;20055;-76
2022/10/24 04:18:49;;;;;;;8.60;2.78;;;;;;;12.42;100.00;99946.41;4924686;29;19915;-75
2022/10/24 04:21:14;;;;;;;8.52;2.92;;;;;;;12.38;100.00;99942.47;4910381;29;20039;-76
2022/10/24 04:23:41;;;;;;;4.80;2.77;;;;;;;12.35;100.00;99939.38;4910487;29;20406;-76
2022/10/24 04:26:08;;;;;;;6.78;4.03;;;;;;;12.40;100.00;99944.97;4924383;29;20032;-76
2022/10/24 04:28:33;;;;;;;5.45;2.85;;;;;;;12.38;100.00;99941.66;4893103;29;20549;-76
2022/10/24 04:30:58;;;;;;;9.67;3.70;;;;;;;12.34;100.00;99930.50;4925016;29;20156;-76
2022/10/24 04:33:24;;;;;;;7.40;3.47;;;;;;;12.34;100.00;99935.88;4913129;29;20835;-75
2022/10/24 04:35:51;;;;;;;7.18;3.15;;;;;;;12.34;100.00;99945.72;4911504;29;20693;-75
2022/10/24 04:38:17;;;;;;;7.40;3.20;;;;;;;12.34;100.00;99943.03;4904723;29;20114;-76
2022/10/24 04:40:49;;;;;;;;;;;;;;;12.35;100.00;99948.22;4908560;29;20043;-76
2022/10/24 04:43:15;;;;;;;7.40;3.22;;;;;;;12.28;100.00;99949.19;4914776;29;19919;-75
2022/10/24 04:45:40;;;;;;;12.77;3.17;;;;;;;12.30;100.00;99955.19;4908033;29;20047;-76
2022/10/24 04:48:06;;;;;;;6.25;3.50;;;;;;;12.25;100.00;99943.19;4894560;29;20028;-76
2022/10/24 04:50:31;;;;;;;9.90;4.17;;;;;;;12.20;100.00;99942.94;4910256;29;20043;-76
2022/10/24 04:52:57;;;;;;;9.77;3.23;;;;;;;12.22;100.00;99950.78;4892913;29;20508;-76
2022/10/24 04:55:22;;;;;;;8.70;3.47;;;;;;;12.22;100.00;99946.28;4924177;29;20086;-76
2022/10/24 04:57:47;;;;;;;8.07;3.27;;;;;;;12.17;100.00;99946.00;4927538;29;20036;-75
2022/10/24 05:00:13;;;;;;;6.83;3.63;;;;;;;12.16;100.00;99938.19;4928677;29;20074;-75
2022/10/24 05:02:41;;;;;;;6.70;4.38;;;;;;;12.12;100.00;99937.72;4927451;29;20047;-76
2022/10/24 05:05:07;;;;;;;8.40;3.78;;;;;;;12.06;100.00;99932.31;4926710;29;20043;-76
2022/10/24 05:07:32;;;;;;;8.63;3.28;;;;;;;12.03;100.00;99925.50;4926464;29;20039;-76
2022/10/24 05:09:58;;;;;;;5.63;3.67;;;;;;;11.99;100.00;99933.09;4919080;29;20056;-76
2022/10/24 05:12:23;;;;;;;8.87;3.97;;;;;;;12.00;100.00;99932.06;4909638;29;20478;-76
2022/10/24 05:14:48;;;;;;;8.97;3.50;;;;;;;11.93;100.00;99933.84;4911045;29;20648;-75
2022/10/24 05:17:14;;;;;;;8.33;3.77;;;;;;;11.95;100.00;99928.31;4910985;29;20131;-76
2022/10/24 05:19:40;;;;;;;7.67;3.47;;;;;;;11.99;100.00;99938.44;4894247;29;20453;-76
2022/10/24 05:22:05;;;;;;;11.52;3.60;;;;;;;12.00;100.00;99939.25;4925360;29;20406;-75
2022/10/24 05:24:31;;;;;;;11.13;4.43;;;;;;;12.02;100.00;99923.84;4917312;29;20032;-75
2022/10/24 05:26:56;;;;;;;11.32;3.92;;;;;;;12.03;100.00;99929.03;4918442;29;20131;-76
2022/10/24 05:29:22;;;;;;;8.07;3.60;;;;;;;12.04;100.00;99921.81;4916422;29;20560;-75
2022/10/24 05:31:47;;;;;;;13.00;4.50;;;;;;;11.99;100.00;99924.25;4911860;29;20054;-76
2022/10/24 05:34:12;;;;;;;11.37;4.30;;;;;;;11.96;100.00;99936.16;4923900;29;20032;-75
2022/10/24 05:36:38;;;;;;;12.33;4.20;;;;;;;11.98;100.00;99930.59;4898362;29;20062;-76
2022/10/24 05:39:03;;;;;;;10.07;3.90;;;;;;;12.01;100.00;99931.06;4908484;29;20055;-75
2022/10/24 05:41:28;;;;;;;8.03;4.63;;;;;;;12.06;100.00;99925.13;4915330;29;20850;-76
2022/10/24 05:43:54;;;;;;;6.83;4.60;;;;;;;12.01;100.00;99922.19;4921927;29;20791;-75
2022/10/24 05:46:20;;;;;;;13.73;4.93;;;;;;;12.06;100.00;99933.16;4968777;23;20503;-78
2022/10/24 05:48:45;;;;;;;11.38;4.07;;;;;;;12.06;100.00;99921.59;4951437;28;20042;-79
2022/10/24 05:51:10;;;;;;;6.50;3.77;;;;;;;12.04;100.00;99914.59;4962112;28;20026;-76
2022/10/24 05:53:35;;;;;;;11.50;3.57;;;;;;;12.06;100.00;99925.13;4942952;28;20607;-78
2022/10/24 05:56:01;;;;;;;4.90;3.73;;;;;;;12.04;100.00;99916.47;4937401;28;20049;-77
2022/10/24 05:58:26;;;;;;;12.13;4.77;;;;;;;11.96;100.00;99917.44;4960727;28;20058;-77
2022/10/24 06:00:52;;;;;;;11.30;3.80;;;;;;;11.94;100.00;99910.59;4969840;28;20026;-77
2022/10/24 06:03:17;;;;;;;13.80;4.50;;;;;;;11.92;100.00;99918.81;4945001;28;20518;-78
2022/10/24 06:05:43;;;;;;;10.33;3.80;;;;;;;11.93;100.00;99912.44;4961169;28;20066;-77
2022/10/24 06:08:08;;;;;;;41.42;5.90;;;;;;;11.92;100.00;99918.00;4934414;28;20038;-77
2022/10/24 06:10:34;;;;;;;13.27;5.50;;;;;;;11.90;100.00;99925.38;4968752;28;20719;-75
2022/10/24 06:12:59;;;;;;;10.95;3.95;;;;;;;11.86;100.00;99916.06;4974004;28;20484;-81
2022/10/24 06:15:25;;;;;;;11.67;3.73;;;;;;;11.89;100.00;99923.72;4950089;28;20039;-79
2022/10/24 06:17:50;;;;;;;8.40;3.80;;;;;;;11.87;100.00;99918.56;4986557;28;20470;-79
2022/10/24 06:20:16;;;;;;;9.35;3.90;;;;;;;11.96;100.00;99930.81;4979933;28;20026;-79
2022/10/24 06:22:44;;;;;;;8.57;3.17;;;;;;;11.88;100.00;99914.88;4990783;28;20483;-79
2022/10/24 06:25:12;;;;;;;9.07;3.50;;;;;;;11.97;100.00;99915.56;4973485;28;20037;-77
2022/10/24 06:27:39;;;;;;;10.48;4.65;;;;;;;12.02;100.00;99910.47;4973272;28;20062;-77
2022/10/24 06:30:05;;;;;;;;;;;;;;;12.07;100.00;99918.75;4991228;28;20891;-79
2022/10/24 06:32:30;;;;;;;8.30;3.35;;;;;;;12.07;100.00;99916.06;4972353;28;19929;-79
2022/10/24 06:34:56;;;;;;;11.33;3.40;;;;;;;12.03;100.00;99907.63;4990552;28;20065;-80
2022/10/24 06:37:21;;;;;;;8.70;3.70;;;;;;;12.21;100.00;99907.13;4950364;28;20281;-78
2022/10/24 06:39:46;;;;;;;6.40;3.13;;;;;;;12.22;100.00;99913.31;4943597;28;20097;-78
2022/10/24 06:42:12;;;;;;;16.73;4.30;;;;;;;12.26;100.00;99911.91;4980555;28;20030;-78
2022/10/24 06:44:38;;;;;;;10.02;3.28;;;;;;;12.42;100.00;99908.13;4962600;28;20449;-78
2022/10/24 06:47:04;;;;;;;9.63;3.73;;;;;;;12.50;100.00;99918.66;4958445;28;20491;-79
2022/10/24 06:49:29;;;;;;;8.27;3.28;;;;;;;12.48;100.00;99895.78;4937543;28;20027;-79
2022/10/24 06:51:55;;;;;;;8.60;3.47;;;;;;;12.55;100.00;99905.53;4936816;28;20066;-80
2022/10/24 06:54:20;;;;;;;6.93;3.75;;;;;;;12.50;100.00;99894.56;4974734;28;20041;-77
2022/10/24 06:56:46;;;;;;;5.03;2.70;;;;;;;12.49;100.00;99892.09;4974698;28;20031;-78
2022/10/24 06:59:14;;;;;;;7.23;2.90;;;;;;;12.55;100.00;99883.28;4969639;28;20085;-80
2022/10/24 07:01:40;;;;;;;10.52;4.05;;;;;;;12.64;100.00;99879.41;4970720;28;20034;-77
2022/10/24 07:04:05;;;;;;;5.80;2.70;;;;;;;12.68;100.00;99873.47;4952814;28;20045;-79
2022/10/24 07:06:31;;;;;;;8.87;3.13;;;;;;;12.79;100.00;99882.00;4969563;28;20547;-79
2022/10/24 07:08:59;;;;;;;12.57;3.55;;;;;;;12.85;100.00;99878.50;4944964;28;20057;-79
2022/10/24 07:11:25;;;;;;;5.10;3.00;;;;;;;12.81;100.00;99866.56;4974422;28;20041;-78
2022/10/24 07:13:51;;;;;;;8.15;2.90;;;;;;;12.90;100.00;99868.03;4971801;28;20048;-79
2022/10/24 07:16:17;;;;;;;5.45;3.10;;;;;;;12.93;100.00;99870.31;4957716;28;20492;-77
2022/10/24 07:18:42;;;;;;;9.43;3.25;;;;;;;12.95;100.00;99872.81;4970514;28;20131;-77
2022/10/24 07:21:14;;;;;;;11.20;3.88;;;;;;;13.05;100.00;99878.59;4960311;28;20035;-77
2022/10/24 07:23:40;;;;;;;7.00;2.58;;;;;;;13.04;100.00;99880.47;4969957;28;20057;-79
2022/10/24 07:26:08;;;;;;;12.07;3.17;;;;;;;13.15;100.00;99884.41;4969550;28;20500;-79
2022/10/24 07:28:35;;;;;;;7.18;3.20;;;;;;;13.26;100.00;99874.97;4952202;28;20572;-77
2022/10/24 07:31:00;;;;;;;11.57;3.00;;;;;;;13.42;100.00;99868.47;4968772;28;20041;-79
2022/10/24 07:33:26;;;;;;;15.10;3.93;;;;;;;13.62;100.00;99865.81;4951690;28;20038;-77
2022/10/24 07:35:52;;;;;;;9.27;3.42;;;;;;;13.86;100.00;99859.88;4951357;28;20043;-78
2022/10/24 07:38:17;;;;;;;6.43;2.93;;;;;;;14.19;100.00;99851.00;4958049;28;20018;-78
2022/10/24 07:40:43;;;;;;;9.77;3.03;;;;;;;14.39;100.00;99825.97;4945252;28;20285;-78
2022/10/24 07:43:08;;;;;;;11.20;2.80;;;;;;;14.77;100.00;99815.34;4951762;28;20030;-78
2022/10/24 07:45:34;;;;;;;9.77;2.63;;;;;;;14.97;100.00;99801.81;4981060;28;20157;-78
2022/10/24 07:47:59;;;;;;;6.17;2.43;;;;;;;14.82;100.00;99755.59;4966871;28;20038;-78
2022/10/24 07:50:26;;;;;;;5.53;3.03;;;;;;;14.97;100.00;99766.88;4951388;28;20057;-79
2022/10/24 07:52:51;;;;;;;8.73;3.15;;;;;;;15.12;100.00;99751.28;4968690;28;20118;-79
2022/10/24 07:55:17;;;;;;;8.00;3.20;;;;;;;15.05;100.00;99718.22;4951101;28;20121;-78
2022/10/24 07:57:42;;;;;;;7.23;3.00;;;;;;;15.85;100.00;99731.09;4960606;28;20023;-78
2022/10/24 08:00:09;;;;;;;5.53;2.50;;;;;;;15.55;100.00;99631.41;4987985;28;20406;-78
2022/10/24 08:02:40;;;;;;;4.40;2.92;;;;;;;16.15;100.00;99636.13;4970345;28;20041;-78
2022/10/24 08:05:06;;;;;;;6.40;2.70;;;;;;;16.11;100.00;99594.53;4944843;28;20034;-78
2022/10/24 08:07:34;;;;;;;5.72;2.75;;;;;;;15.93;100.00;99576.56;4934758;28;20034;-79
2022/10/24 08:10:00;;;;;;;8.88;3.25;;;;;;;15.72;100.00;99583.22;4951037;28;20055;-78
2022/10/24 08:12:25;;;;;;;6.07;2.58;;;;;;;15.77;100.00;99549.19;4958398;28;20037;-77
2022/10/24 08:14:52;;;;;;;6.97;2.73;;;;;;;15.93;100.00;99569.31;4951428;28;20038;-74
2022/10/24 08:17:18;;;;;;;4.72;2.20;;;;;;;16.53;100.00;99543.41;4967913;28;20033;-75
2022/10/24 08:19:44;;;;;;;6.35;2.90;;;;;;;16.29;100.00;99419.47;4968181;28;20500;-76
2022/10/24 08:22:10;;;;;;;7.70;3.00;;;;;;;17.13;100.00;99438.09;4968342;28;20090;-75
2022/10/24 08:24:35;;;;;;;12.05;2.88;;;;;;;17.43;100.00;99362.38;4948619;28;20093;-77
2022/10/24 08:27:01;;;;;;;8.97;3.07;;;;;;;17.06;100.00;99260.28;4968015;28;20030;-78
2022/10/24 08:29:26;;;;;;;2.53;2.30;;;;;;;16.45;100.00;99162.88;4951040;28;20043;-77
2022/10/24 08:31:54;;;;;;;7.18;2.10;;;;;;;16.99;100.00;99307.31;4967632;28;20030;-77
2022/10/24 08:34:20;;;;;;;10.93;2.83;;;;;;;17.83;100.00;99204.13;4968005;28;20069;-78
2022/10/24 08:36:47;;;;;;;8.93;2.83;;;;;;;16.90;100.00;99144.31;4938786;28;20035;-77
2022/10/24 08:39:12;;;;;;;7.03;2.70;;;;;;;17.06;100.00;99112.00;4948919;28;20344;-76
2022/10/24 08:41:42;;;;;;;6.63;2.53;;;;;;;17.29;100.00;99216.19;4937002;28;20034;-74
2022/10/24 08:44:25;;;;;;;6.82;2.70;;;;;;;17.27;100.00;99104.22;4950763;28;20044;-75
2022/10/24 08:47:03;;;;;;;6.32;2.38;;;;;;;17.60;100.00;99108.75;4944336;28;20396;-74
2022/10/24 08:49:44;;;;;;;3.50;2.20;;;;;;;17.68;100.00;99081.38;4963067;28;20042;-78
2022/10/24 08:52:42;;;;;;;6.82;2.50;;;;;;;17.89;100.00;99085.16;4944635;28;20065;-77
2022/10/24 08:55:59;;;;;;;9.95;3.25;;;;;;;18.36;100.00;99051.41;4946585;28;20076;-77
2022/10/24 08:58:34;;;;;;;8.27;3.15;;;;;;;18.25;100.00;99006.44;4931586;29;20043;-75
2022/10/24 09:01:04;;;;;;;10.68;2.80;;;;;;;18.84;100.00;99074.03;4928944;29;20249;-75
2022/10/24 09:03:38;;;;;;;5.03;2.22;;;;;;;18.91;100.00;98869.13;4931749;29;20214;-75
2022/10/24 09:06:12;;;;;;;9.55;3.75;;;;;;;18.62;100.00;98930.03;4913370;29;20035;-75
2022/10/24 09:08:52;;;;;;;8.05;3.08;;;;;;;18.85;100.00;98762.06;4939681;29;20086;-75
2022/10/24 09:11:40;;;;;;;8.13;2.72;;;;;;;18.72;100.00;98894.94;4935885;29;20067;-75
2022/10/24 09:14:14;;;;;;;6.63;2.28;;;;;;;19.19;100.00;98975.31;4927145;29;20587;-75
2022/10/24 09:16:42;;;;;;;6.63;2.92;;;;;;;18.53;100.00;98784.59;4940009;28;20143;-77
2022/10/24 09:19:13;;;;;;;8.38;2.08;;;;;;;17.99;100.00;99078.28;4929430;29;20396;-74
2022/10/24 09:21:41;;;;;;;8.52;2.53;;;;;;;18.28;100.00;99074.25;4943360;29;20147;-74
2022/10/24 09:24:23;;;;;;;7.55;2.38;;;;;;;18.30;100.00;99090.22;4945352;29;20031;-75
2022/10/24 09:26:48;;;;;;;7.00;2.17;;;;;;;17.90;100.00;99015.78;4944699;29;20198;-75
2022/10/24 09:29:13;;;;;;;7.23;2.60;;;;;;;17.87;100.00;99078.41;4929455;29;20919;-75
2022/10/24 09:31:39;;;;;;;11.30;3.03;;;;;;;18.88;100.00;99209.53;4939705;29;20036;-75
2022/10/24 09:34:05;;;;;;;8.70;2.05;;;;;;;19.03;100.00;99095.28;4942771;28;20385;-74
2022/10/24 09:36:31;;;;;;;9.18;2.17;;;;;;;18.81;100.00;98874.50;4930058;29;20043;-74
2022/10/24 09:39:21;;;;;;;4.95;2.15;;;;;;;18.05;100.00;99012.44;4959314;28;20037;-74
2022/10/24 09:41:46;;;;;;;6.65;2.25;;;;;;;18.04;100.00;99100.72;4971632;28;20050;-74
2022/10/24 09:44:35;;;;;;;4.00;1.87;;;;;;;18.01;100.00;99159.84;4956791;28;20026;-74
2022/10/24 09:47:02;;;;;;;5.60;2.63;;;;;;;18.26;100.00;99126.91;4968200;28;20030;-74
2022/10/24 09:49:34;;;;;;;10.32;3.15;;;;;;;18.54;100.00;99199.69;4968044;28;20061;-75
2022/10/24 09:52:05;;;;;;;10.52;2.35;;;;;;;18.03;100.00;99136.91;4968846;28;20047;-74
2022/10/24 09:54:33;;;;;;;11.18;2.88;;;;;;;18.29;100.00;99204.78;4977387;28;20507;-77
2022/10/24 09:57:04;;;;;;;6.38;2.50;;;;;;;18.17;100.00;99110.34;4964793;28;20112;-75
2022/10/24 09:59:43;;;;;;;4.97;1.95;;;;;;;18.25;100.00;99276.56;4934009;28;20048;-75
2022/10/24 10:02:19;;;;;;;7.22;2.80;;;;;;;18.64;100.00;99219.78;4969963;28;20038;-74
2022/10/24 10:05:09;;;;;;;6.68;2.38;;;;;;;18.52;100.00;98922.66;4952907;28;20039;-74
2022/10/24 10:07:37;;;;;;;8.52;2.10;;;;;;;18.43;100.00;99057.41;4952768;28;20026;-75
2022/10/24 10:10:20;;;;;;;9.48;1.85;;;;;;;18.88;100.00;98950.78;4970592;28;20019;-76
2022/10/24 10:13:00;;;;;;;7.15;2.60;;;;;;;18.82;100.00;98935.59;4953106;28;20065;-75
2022/10/24 10:15:44;;;;;;;7.68;2.30;;;;;;;19.32;100.00;98919.91;4959829;28;20030;-75
2022/10/24 10:18:19;;;;;;;10.32;2.80;;;;;;;19.38;99.17;98676.13;4959882;28;20725;-75
2022/10/24 10:20:44;;;;;;;9.38;2.08;;;;;;;18.74;100.00;98623.31;4971918;28;20042;-75
2022/10/24 10:23:15;;;;;;;13.38;2.78;;;;;;;18.73;100.00;98824.44;4972299;28;20018;-74
2022/10/24 10:25:41;;;;;;;7.93;2.42;;;;;;;18.62;100.00;98854.38;4974511;28;20046;-74
2022/10/24 10:28:19;;;;;;;10.27;2.07;;;;;;;19.40;100.00;99009.50;4969816;28;20019;-74
2022/10/24 10:30:54;;;;;;;8.23;2.10;;;;;;;19.27;99.25;98766.50;4950983;28;20047;-74
2022/10/24 10:33:45;;;;;;;12.25;2.40;;;;;;;19.17;99.28;98793.50;4952865;28;20043;-74
2022/10/24 10:36:18;;;;;;;6.30;2.15;;;;;;;18.50;100.00;98762.69;4962955;28;20054;-74
2022/10/24 10:38:46;;;;;;;6.45;1.77;;;;;;;19.19;99.77;98854.38;4969696;28;20027;-75
2022/10/24 10:41:25;;;;;;;7.53;2.50;;;;;;;19.29;98.66;98813.03;4969904;28;20109;-74
2022/10/24 10:44:02;;;;;;;10.07;2.35;;;;;;;19.75;97.13;98855.63;4952694;28;20070;-74
2022/10/24 10:46:38;;;;;;;7.18;1.85;;;;;;;19.72;94.48;98699.16;4959630;28;20484;-74
2022/10/24 10:49:20;;;;;;;9.82;1.60;;;;;;;19.61;93.59;98649.59;4969350;28;20042;-74
2022/10/24 10:52:05;;;;;;;6.85;2.35;;;;;;;19.34;92.99;98577.66;4988991;28;20041;-75
2022/10/24 10:54:57;;;;;;;;;;;;;;;19.27;92.38;98509.50;4971779;28;20030;-75
2022/10/24 10:57:37;;;;;;;9.52;2.60;;;;;;;19.89;93.14;98758.44;4950684;28;19913;-75
2022/10/24 11:00:24;;;;;;;11.60;2.25;;;;;;;19.77;90.63;98574.63;4988920;28;20096;-75
2022/10/24 11:02:52;;;;;;;5.72;1.60;;;;;;;19.28;91.78;98557.09;4960750;28;20030;-74
2022/10/24 11:05:36;;;;;;;5.88;1.92;;;;;;;18.73;95.26;98688.44;4967808;28;20050;-75
2022/10/24 11:08:08;;;;;;;10.45;2.30;;;;;;;18.50;99.08;98885.09;4969014;28;20081;-75
2022/10/24 11:10:46;;;;;;;8.13;2.95;;;;;;;18.17;99.67;98828.63;4951906;28;20400;-75
2022/10/24 11:13:22;;;;;;;4.65;2.05;;;;;;;18.11;100.00;99027.63;4957637;28;20030;-74
2022/10/24 11:15:53;;;;;;;11.48;2.35;;;;;;;17.72;100.00;98976.41;4970925;28;20034;-74
2022/10/24 11:18:26;;;;;;;5.30;2.00;;;;;;;17.95;100.00;99104.94;4967375;28;20050;-75
2022/10/24 11:21:04;;;;;;;5.22;1.65;;;;;;;18.28;100.00;98993.22;4969356;28;20435;-77
2022/10/24 11:23:40;;;;;;;5.57;1.58;;;;;;;18.51;98.88;98937.25;4969335;28;20049;-75
2022/10/24 11:26:15;;;;;;;6.63;1.67;;;;;;;18.23;98.82;98874.34;4968669;28;20082;-75
2022/10/24 11:28:54;;;;;;;6.88;2.00;;;;;;;17.99;97.66;98776.69;4951576;28;20053;-75
2022/10/24 11:31:24;;;;;;;5.38;1.48;;;;;;;18.18;95.10;98684.47;4951803;28;20558;-75
2022/10/24 11:33:57;;;;;;;12.32;1.55;;;;;;;18.45;94.41;98762.63;4969040;28;20047;-75
2022/10/24 11:36:31;;;;;;;7.70;1.52;;;;;;;18.19;93.23;98615.84;4975243;28;20060;-75
2022/10/24 11:39:09;;;;;;;8.50;1.60;;;;;;;17.94;93.94;98628.19;4938308;29;20432;-75